sensor_id;sensor_type;location;lat;lon;timestamp;P1;durP1;ratioP1;P2;durP2;ratioP2
61407;SDS011;47274;43.054;25.146;2023-09-07T00:00:58;6.70;;;3.83;;
61407;SDS011;47274;43.054;25.146;2023-09-07T00:03:26;6.75;;;4.22;;
61407;SDS011;47274;43.054;25.146;2023-09-07T00:05:51;4.75;;;3.60;;
61407;SDS011;47274;43.054;25.146;2023-09-07T00:08:17;7.97;;;4.03;;
61407;SDS011;47274;43.054;25.146;2023-09-07T00:10:43;10.82;;;4.38;;
61407;SDS011;47274;43.054;25.146;2023-09-07T00:13:09;9.00;;;4.28;;
61407;SDS011;47274;43.054;25.146;2023-09-07T00:15:37;9.55;;;4.25;;
61407;SDS011;47274;43.054;25.146;2023-09-07T00:18:04;9.02;;;4.00;;
61407;SDS011;47274;43.054;25.146;2023-09-07T00:20:30;9.75;;;4.43;;
61407;SDS011;47274;43.054;25.146;2023-09-07T00:22:55;6.82;;;3.70;;
61407;SDS011;47274;43.054;25.146;2023-09-07T00:25:21;6.90;;;3.95;;
61407;SDS011;47274;43.054;25.146;2023-09-07T00:27:47;10.32;;;4.07;;
61407;SDS011;47274;43.054;25.146;2023-09-07T00:30:12;8.40;;;4.22;;
61407;SDS011;47274;43.054;25.146;2023-09-07T00:32:42;9.57;;;4.43;;
61407;SDS011;47274;43.054;25.146;2023-09-07T00:35:08;7.13;;;3.90;;
61407;SDS011;47274;43.054;25.146;2023-09-07T00:37:34;7.22;;;4.32;;
61407;SDS011;47274;43.054;25.146;2023-09-07T00:40:02;9.10;;;3.92;;
61407;SDS011;47274;43.054;25.146;2023-09-07T00:42:29;7.85;;;3.90;;
61407;SDS011;47274;43.054;25.146;2023-09-07T00:44:55;7.25;;;4.05;;
61407;SDS011;47274;43.054;25.146;2023-09-07T00:47:21;6.38;;;4.05;;
61407;SDS011;47274;43.054;25.146;2023-09-07T00:49:48;6.32;;;3.88;;
61407;SDS011;47274;43.054;25.146;2023-09-07T00:52:14;8.23;;;3.85;;
61407;SDS011;47274;43.054;25.146;2023-09-07T00:54:41;6.53;;;3.75;;
61407;SDS011;47274;43.054;25.146;2023-09-07T00:57:07;6.65;;;4.07;;
61407;SDS011;47274;43.054;25.146;2023-09-07T00:59:34;6.90;;;4.10;;
61407;SDS011;47274;43.054;25.146;2023-09-07T01:02:00;6.05;;;3.70;;
61407;SDS011;47274;43.054;25.146;2023-09-07T01:04:26;5.90;;;3.70;;
61407;SDS011;47274;43.054;25.146;2023-09-07T01:09:44;7.43;;;3.80;;
61407;SDS011;47274;43.054;25.146;2023-09-07T01:12:16;5.00;;;3.72;;
61407;SDS011;47274;43.054;25.146;2023-09-07T01:14:43;10.43;;;3.83;;
61407;SDS011;47274;43.054;25.146;2023-09-07T01:17:09;4.18;;;3.33;;
61407;SDS011;47274;43.054;25.146;2023-09-07T01:19:36;7.20;;;3.80;;
61407;SDS011;47274;43.054;25.146;2023-09-07T01:22:02;5.43;;;3.80;;
61407;SDS011;47274;43.054;25.146;2023-09-07T01:24:29;7.00;;;3.95;;
61407;SDS011;47274;43.054;25.146;2023-09-07T01:26:57;8.77;;;3.78;;
61407;SDS011;47274;43.054;25.146;2023-09-07T01:29:23;5.25;;;3.45;;
61407;SDS011;47274;43.054;25.146;2023-09-07T01:31:50;7.63;;;3.78;;
61407;SDS011;47274;43.054;25.146;2023-09-07T01:34:18;9.15;;;4.10;;
61407;SDS011;47274;43.054;25.146;2023-09-07T01:36:44;7.40;;;3.85;;
61407;SDS011;47274;43.054;25.146;2023-09-07T01:39:10;8.02;;;4.28;;
61407;SDS011;47274;43.054;25.146;2023-09-07T01:41:36;7.25;;;4.22;;
61407;SDS011;47274;43.054;25.146;2023-09-07T01:44:02;10.40;;;4.40;;
61407;SDS011;47274;43.054;25.146;2023-09-07T01:46:28;9.18;;;4.38;;
61407;SDS011;47274;43.054;25.146;2023-09-07T01:48:54;9.13;;;4.20;;
61407;SDS011;47274;43.054;25.146;2023-09-07T01:51:20;8.65;;;4.38;;
61407;SDS011;47274;43.054;25.146;2023-09-07T01:53:49;9.52;;;4.40;;
61407;SDS011;47274;43.054;25.146;2023-09-07T01:56:18;6.72;;;4.05;;
61407;SDS011;47274;43.054;25.146;2023-09-07T01:58:44;6.72;;;4.03;;
61407;SDS011;47274;43.054;25.146;2023-09-07T02:01:26;8.25;;;3.88;;
61407;SDS011;47274;43.054;25.146;2023-09-07T02:03:55;8.18;;;4.55;;
61407;SDS011;47274;43.054;25.146;2023-09-07T02:06:21;10.35;;;4.13;;
61407;SDS011;47274;43.054;25.146;2023-09-07T02:08:47;10.23;;;4.13;;
61407;SDS011;47274;43.054;25.146;2023-09-07T02:11:14;9.07;;;4.25;;
61407;SDS011;47274;43.054;25.146;2023-09-07T02:13:44;12.60;;;4.85;;
61407;SDS011;47274;43.054;25.146;2023-09-07T02:16:14;8.33;;;4.20;;
61407;SDS011;47274;43.054;25.146;2023-09-07T02:18:41;10.45;;;4.20;;
61407;SDS011;47274;43.054;25.146;2023-09-07T02:23:38;11.45;;;4.68;;
61407;SDS011;47274;43.054;25.146;2023-09-07T02:26:12;8.68;;;4.30;;
61407;SDS011;47274;43.054;25.146;2023-09-07T02:28:38;6.28;;;3.85;;
61407;SDS011;47274;43.054;25.146;2023-09-07T02:31:07;9.27;;;4.40;;
61407;SDS011;47274;43.054;25.146;2023-09-07T02:33:34;10.88;;;4.47;;
61407;SDS011;47274;43.054;25.146;2023-09-07T02:36:01;8.88;;;4.20;;
61407;SDS011;47274;43.054;25.146;2023-09-07T02:38:30;9.35;;;4.60;;
61407;SDS011;47274;43.054;25.146;2023-09-07T02:40:56;10.98;;;4.90;;
61407;SDS011;47274;43.054;25.146;2023-09-07T02:43:22;10.50;;;5.10;;
61407;SDS011;47274;43.054;25.146;2023-09-07T02:45:49;9.65;;;5.03;;
61407;SDS011;47274;43.054;25.146;2023-09-07T02:48:17;8.30;;;4.90;;
61407;SDS011;47274;43.054;25.146;2023-09-07T02:53:36;10.65;;;5.40;;
61407;SDS011;47274;43.054;25.146;2023-09-07T02:56:02;12.60;;;5.03;;
61407;SDS011;47274;43.054;25.146;2023-09-07T02:58:30;10.50;;;4.63;;
61407;SDS011;47274;43.054;25.146;2023-09-07T03:00:56;9.30;;;4.82;;
61407;SDS011;47274;43.054;25.146;2023-09-07T03:03:24;10.93;;;4.60;;
61407;SDS011;47274;43.054;25.146;2023-09-07T03:05:50;8.95;;;5.03;;
61407;SDS011;47274;43.054;25.146;2023-09-07T03:08:16;11.10;;;5.32;;
61407;SDS011;47274;43.054;25.146;2023-09-07T03:10:48;9.57;;;4.72;;
61407;SDS011;47274;43.054;25.146;2023-09-07T03:13:16;9.60;;;5.00;;
61407;SDS011;47274;43.054;25.146;2023-09-07T03:15:42;9.38;;;4.30;;
61407;SDS011;47274;43.054;25.146;2023-09-07T03:18:11;10.60;;;4.60;;
61407;SDS011;47274;43.054;25.146;2023-09-07T03:20:38;7.60;;;4.57;;
61407;SDS011;47274;43.054;25.146;2023-09-07T03:23:04;7.63;;;4.00;;
61407;SDS011;47274;43.054;25.146;2023-09-07T03:25:30;9.63;;;4.63;;
61407;SDS011;47274;43.054;25.146;2023-09-07T03:27:56;8.10;;;4.30;;
61407;SDS011;47274;43.054;25.146;2023-09-07T03:30:22;7.85;;;4.50;;
61407;SDS011;47274;43.054;25.146;2023-09-07T03:32:51;11.65;;;4.82;;
61407;SDS011;47274;43.054;25.146;2023-09-07T03:35:17;9.88;;;4.60;;
61407;SDS011;47274;43.054;25.146;2023-09-07T03:37:43;11.50;;;4.63;;
61407;SDS011;47274;43.054;25.146;2023-09-07T03:40:09;9.27;;;4.38;;
61407;SDS011;47274;43.054;25.146;2023-09-07T03:42:37;10.52;;;5.00;;
61407;SDS011;47274;43.054;25.146;2023-09-07T03:45:03;6.18;;;4.15;;
61407;SDS011;47274;43.054;25.146;2023-09-07T03:47:31;6.50;;;4.00;;
61407;SDS011;47274;43.054;25.146;2023-09-07T03:49:57;6.20;;;3.75;;
61407;SDS011;47274;43.054;25.146;2023-09-07T03:52:25;9.30;;;4.43;;
61407;SDS011;47274;43.054;25.146;2023-09-07T03:54:55;9.40;;;4.53;;
61407;SDS011;47274;43.054;25.146;2023-09-07T03:57:22;8.52;;;4.65;;
61407;SDS011;47274;43.054;25.146;2023-09-07T03:59:49;9.45;;;4.20;;
61407;SDS011;47274;43.054;25.146;2023-09-07T04:02:15;8.10;;;4.30;;
61407;SDS011;47274;43.054;25.146;2023-09-07T04:04:43;9.02;;;4.18;;
61407;SDS011;47274;43.054;25.146;2023-09-07T04:07:12;7.80;;;4.15;;
61407;SDS011;47274;43.054;25.146;2023-09-07T04:09:38;6.70;;;4.20;;
61407;SDS011;47274;43.054;25.146;2023-09-07T04:12:13;9.98;;;4.28;;
61407;SDS011;47274;43.054;25.146;2023-09-07T04:14:41;6.65;;;4.13;;
61407;SDS011;47274;43.054;25.146;2023-09-07T04:17:07;8.00;;;4.40;;
61407;SDS011;47274;43.054;25.146;2023-09-07T04:19:33;8.27;;;4.47;;
61407;SDS011;47274;43.054;25.146;2023-09-07T04:21:59;8.30;;;4.32;;
61407;SDS011;47274;43.054;25.146;2023-09-07T04:24:26;7.35;;;4.05;;
61407;SDS011;47274;43.054;25.146;2023-09-07T04:27:06;5.85;;;4.00;;
61407;SDS011;47274;43.054;25.146;2023-09-07T04:29:39;8.67;;;4.27;;
61407;SDS011;47274;43.054;25.146;2023-09-07T04:32:05;8.75;;;4.30;;
61407;SDS011;47274;43.054;25.146;2023-09-07T04:34:31;10.25;;;4.13;;
61407;SDS011;47274;43.054;25.146;2023-09-07T04:37:00;6.93;;;4.07;;
61407;SDS011;47274;43.054;25.146;2023-09-07T04:39:26;5.97;;;4.00;;
61407;SDS011;47274;43.054;25.146;2023-09-07T04:41:52;7.47;;;4.30;;
61407;SDS011;47274;43.054;25.146;2023-09-07T04:44:20;10.50;;;4.30;;
61407;SDS011;47274;43.054;25.146;2023-09-07T04:46:46;9.18;;;4.13;;
61407;SDS011;47274;43.054;25.146;2023-09-07T04:49:15;9.02;;;4.40;;
61407;SDS011;47274;43.054;25.146;2023-09-07T04:51:40;8.02;;;3.97;;
61407;SDS011;47274;43.054;25.146;2023-09-07T04:54:06;6.55;;;4.05;;
61407;SDS011;47274;43.054;25.146;2023-09-07T04:56:32;8.18;;;4.35;;
61407;SDS011;47274;43.054;25.146;2023-09-07T04:59:01;7.47;;;4.18;;
61407;SDS011;47274;43.054;25.146;2023-09-07T05:01:26;8.73;;;4.20;;
61407;SDS011;47274;43.054;25.146;2023-09-07T05:03:53;8.60;;;4.22;;
61407;SDS011;47274;43.054;25.146;2023-09-07T05:06:20;8.40;;;3.97;;
61407;SDS011;47274;43.054;25.146;2023-09-07T05:08:48;8.13;;;4.20;;
61407;SDS011;47274;43.054;25.146;2023-09-07T05:11:14;6.93;;;4.03;;
61407;SDS011;47274;43.054;25.146;2023-09-07T05:13:40;7.03;;;3.95;;
61407;SDS011;47274;43.054;25.146;2023-09-07T05:16:06;6.85;;;3.78;;
61407;SDS011;47274;43.054;25.146;2023-09-07T05:18:34;7.18;;;3.92;;
61407;SDS011;47274;43.054;25.146;2023-09-07T05:21:00;6.40;;;3.97;;
61407;SDS011;47274;43.054;25.146;2023-09-07T05:23:26;5.60;;;3.90;;
61407;SDS011;47274;43.054;25.146;2023-09-07T05:25:52;7.30;;;3.78;;
61407;SDS011;47274;43.054;25.146;2023-09-07T05:28:21;7.32;;;4.00;;
61407;SDS011;47274;43.054;25.146;2023-09-07T05:30:49;8.98;;;4.20;;
61407;SDS011;47274;43.054;25.146;2023-09-07T05:33:16;7.53;;;4.15;;
61407;SDS011;47274;43.054;25.146;2023-09-07T05:35:43;6.65;;;3.92;;
61407;SDS011;47274;43.054;25.146;2023-09-07T05:38:11;6.97;;;3.88;;
61407;SDS011;47274;43.054;25.146;2023-09-07T05:40:38;8.23;;;3.92;;
61407;SDS011;47274;43.054;25.146;2023-09-07T05:43:05;8.57;;;4.43;;
61407;SDS011;47274;43.054;25.146;2023-09-07T05:45:35;7.38;;;4.07;;
61407;SDS011;47274;43.054;25.146;2023-09-07T05:48:03;7.95;;;4.00;;
61407;SDS011;47274;43.054;25.146;2023-09-07T05:50:30;6.00;;;3.90;;
61407;SDS011;47274;43.054;25.146;2023-09-07T05:52:56;8.75;;;4.20;;
61407;SDS011;47274;43.054;25.146;2023-09-07T05:55:22;11.48;;;4.45;;
61407;SDS011;47274;43.054;25.146;2023-09-07T05:57:48;8.45;;;3.97;;
61407;SDS011;47274;43.054;25.146;2023-09-07T06:00:17;11.73;;;4.10;;
61407;SDS011;47274;43.054;25.146;2023-09-07T06:02:48;6.20;;;3.97;;
61407;SDS011;47274;43.054;25.146;2023-09-07T06:05:15;6.00;;;3.95;;
61407;SDS011;47274;43.054;25.146;2023-09-07T06:07:41;8.93;;;4.25;;
61407;SDS011;47274;43.054;25.146;2023-09-07T06:10:08;8.00;;;4.30;;
61407;SDS011;47274;43.054;25.146;2023-09-07T06:12:34;8.40;;;4.43;;
61407;SDS011;47274;43.054;25.146;2023-09-07T06:15:01;6.40;;;3.88;;
61407;SDS011;47274;43.054;25.146;2023-09-07T06:17:28;8.07;;;4.20;;
61407;SDS011;47274;43.054;25.146;2023-09-07T06:19:55;5.55;;;3.75;;
61407;SDS011;47274;43.054;25.146;2023-09-07T06:22:23;9.40;;;4.35;;
61407;SDS011;47274;43.054;25.146;2023-09-07T06:24:50;7.65;;;4.20;;
61407;SDS011;47274;43.054;25.146;2023-09-07T06:27:17;6.50;;;3.95;;
61407;SDS011;47274;43.054;25.146;2023-09-07T06:29:43;8.75;;;4.28;;
61407;SDS011;47274;43.054;25.146;2023-09-07T06:32:09;11.98;;;5.13;;
61407;SDS011;47274;43.054;25.146;2023-09-07T06:34:34;9.13;;;4.47;;
61407;SDS011;47274;43.054;25.146;2023-09-07T06:37:02;9.77;;;4.43;;
61407;SDS011;47274;43.054;25.146;2023-09-07T06:39:28;9.18;;;4.15;;
61407;SDS011;47274;43.054;25.146;2023-09-07T06:41:54;8.90;;;4.30;;
61407;SDS011;47274;43.054;25.146;2023-09-07T06:44:25;8.07;;;4.20;;
61407;SDS011;47274;43.054;25.146;2023-09-07T06:46:51;6.13;;;3.90;;
61407;SDS011;47274;43.054;25.146;2023-09-07T06:49:18;8.10;;;3.92;;
61407;SDS011;47274;43.054;25.146;2023-09-07T06:51:44;9.70;;;4.80;;
61407;SDS011;47274;43.054;25.146;2023-09-07T06:54:10;10.98;;;4.97;;
61407;SDS011;47274;43.054;25.146;2023-09-07T06:56:37;9.65;;;4.43;;
61407;SDS011;47274;43.054;25.146;2023-09-07T06:59:03;11.85;;;5.55;;
61407;SDS011;47274;43.054;25.146;2023-09-07T07:01:29;10.98;;;4.88;;
61407;SDS011;47274;43.054;25.146;2023-09-07T07:03:57;10.13;;;4.32;;
61407;SDS011;47274;43.054;25.146;2023-09-07T07:06:24;8.23;;;4.70;;
61407;SDS011;47274;43.054;25.146;2023-09-07T07:08:51;7.55;;;4.10;;
61407;SDS011;47274;43.054;25.146;2023-09-07T07:11:17;9.07;;;4.40;;
61407;SDS011;47274;43.054;25.146;2023-09-07T07:13:43;7.60;;;4.50;;
61407;SDS011;47274;43.054;25.146;2023-09-07T07:16:09;7.78;;;4.30;;
61407;SDS011;47274;43.054;25.146;2023-09-07T07:18:36;7.45;;;4.05;;
61407;SDS011;47274;43.054;25.146;2023-09-07T07:21:02;7.93;;;4.32;;
61407;SDS011;47274;43.054;25.146;2023-09-07T07:23:28;9.00;;;4.70;;
61407;SDS011;47274;43.054;25.146;2023-09-07T07:25:54;7.43;;;4.32;;
61407;SDS011;47274;43.054;25.146;2023-09-07T07:28:23;8.43;;;4.75;;
61407;SDS011;47274;43.054;25.146;2023-09-07T07:30:49;7.55;;;4.00;;
61407;SDS011;47274;43.054;25.146;2023-09-07T07:33:18;8.77;;;4.30;;
61407;SDS011;47274;43.054;25.146;2023-09-07T07:35:44;9.70;;;4.55;;
61407;SDS011;47274;43.054;25.146;2023-09-07T07:38:10;7.22;;;4.20;;
61407;SDS011;47274;43.054;25.146;2023-09-07T07:40:41;9.60;;;4.40;;
61407;SDS011;47274;43.054;25.146;2023-09-07T07:43:08;8.27;;;4.30;;
61407;SDS011;47274;43.054;25.146;2023-09-07T07:45:36;11.95;;;4.60;;
61407;SDS011;47274;43.054;25.146;2023-09-07T07:48:06;9.43;;;4.93;;
61407;SDS011;47274;43.054;25.146;2023-09-07T07:50:40;9.93;;;4.80;;
61407;SDS011;47274;43.054;25.146;2023-09-07T07:53:07;10.40;;;5.53;;
61407;SDS011;47274;43.054;25.146;2023-09-07T07:55:37;11.45;;;5.93;;
61407;SDS011;47274;43.054;25.146;2023-09-07T07:58:08;14.77;;;6.60;;
61407;SDS011;47274;43.054;25.146;2023-09-07T08:00:36;10.80;;;5.60;;
61407;SDS011;47274;43.054;25.146;2023-09-07T08:03:04;12.43;;;6.32;;
61407;SDS011;47274;43.054;25.146;2023-09-07T08:05:35;11.00;;;5.70;;
61407;SDS011;47274;43.054;25.146;2023-09-07T08:08:06;11.30;;;5.72;;
61407;SDS011;47274;43.054;25.146;2023-09-07T08:10:35;10.70;;;5.57;;
61407;SDS011;47274;43.054;25.146;2023-09-07T08:13:06;14.25;;;5.53;;
61407;SDS011;47274;43.054;25.146;2023-09-07T08:15:32;12.70;;;6.13;;
61407;SDS011;47274;43.054;25.146;2023-09-07T08:17:59;13.20;;;6.50;;
61407;SDS011;47274;43.054;25.146;2023-09-07T08:20:26;11.15;;;6.15;;
61407;SDS011;47274;43.054;25.146;2023-09-07T08:22:56;18.48;;;6.18;;
61407;SDS011;47274;43.054;25.146;2023-09-07T08:25:23;14.80;;;6.75;;
61407;SDS011;47274;43.054;25.146;2023-09-07T08:27:50;13.75;;;5.75;;
61407;SDS011;47274;43.054;25.146;2023-09-07T08:30:16;15.38;;;6.53;;
61407;SDS011;47274;43.054;25.146;2023-09-07T08:32:43;11.50;;;5.78;;
61407;SDS011;47274;43.054;25.146;2023-09-07T08:35:17;14.70;;;6.10;;
61407;SDS011;47274;43.054;25.146;2023-09-07T08:37:43;11.02;;;5.63;;
61407;SDS011;47274;43.054;25.146;2023-09-07T08:40:09;10.82;;;5.43;;
61407;SDS011;47274;43.054;25.146;2023-09-07T08:42:36;9.63;;;5.20;;
61407;SDS011;47274;43.054;25.146;2023-09-07T08:45:05;9.13;;;5.35;;
61407;SDS011;47274;43.054;25.146;2023-09-07T08:47:34;14.32;;;5.90;;
61407;SDS011;47274;43.054;25.146;2023-09-07T08:50:21;13.15;;;6.10;;
61407;SDS011;47274;43.054;25.146;2023-09-07T08:52:53;10.30;;;5.20;;
61407;SDS011;47274;43.054;25.146;2023-09-07T08:55:24;9.50;;;5.20;;
61407;SDS011;47274;43.054;25.146;2023-09-07T08:57:51;7.97;;;5.07;;
61407;SDS011;47274;43.054;25.146;2023-09-07T09:00:19;11.65;;;5.18;;
61407;SDS011;47274;43.054;25.146;2023-09-07T09:02:59;7.13;;;4.63;;
61407;SDS011;47274;43.054;25.146;2023-09-07T09:05:25;14.73;;;4.90;;
61407;SDS011;47274;43.054;25.146;2023-09-07T09:08:00;8.90;;;4.70;;
61407;SDS011;47274;43.054;25.146;2023-09-07T09:10:31;8.70;;;4.75;;
61407;SDS011;47274;43.054;25.146;2023-09-07T09:12:57;9.32;;;4.72;;
61407;SDS011;47274;43.054;25.146;2023-09-07T09:15:25;12.35;;;5.28;;
61407;SDS011;47274;43.054;25.146;2023-09-07T09:17:54;10.07;;;5.28;;
61407;SDS011;47274;43.054;25.146;2023-09-07T09:20:21;10.30;;;5.20;;
61407;SDS011;47274;43.054;25.146;2023-09-07T09:22:54;13.00;;;4.97;;
61407;SDS011;47274;43.054;25.146;2023-09-07T09:25:23;11.20;;;5.45;;
61407;SDS011;47274;43.054;25.146;2023-09-07T09:27:49;6.75;;;4.38;;
61407;SDS011;47274;43.054;25.146;2023-09-07T09:30:15;7.35;;;4.68;;
61407;SDS011;47274;43.054;25.146;2023-09-07T09:32:50;9.00;;;4.80;;
61407;SDS011;47274;43.054;25.146;2023-09-07T09:35:17;13.73;;;5.40;;
61407;SDS011;47274;43.054;25.146;2023-09-07T09:37:46;10.95;;;5.97;;
61407;SDS011;47274;43.054;25.146;2023-09-07T09:40:19;11.98;;;5.00;;
61407;SDS011;47274;43.054;25.146;2023-09-07T09:42:46;10.23;;;5.93;;
61407;SDS011;47274;43.054;25.146;2023-09-07T09:45:12;8.20;;;5.00;;
61407;SDS011;47274;43.054;25.146;2023-09-07T09:47:59;7.88;;;5.00;;
61407;SDS011;47274;43.054;25.146;2023-09-07T09:50:26;9.73;;;5.47;;
61407;SDS011;47274;43.054;25.146;2023-09-07T09:52:56;8.88;;;5.15;;
61407;SDS011;47274;43.054;25.146;2023-09-07T09:55:23;10.35;;;5.07;;
61407;SDS011;47274;43.054;25.146;2023-09-07T09:57:50;11.02;;;5.60;;
61407;SDS011;47274;43.054;25.146;2023-09-07T10:00:19;9.73;;;5.43;;
61407;SDS011;47274;43.054;25.146;2023-09-07T10:02:55;14.82;;;5.38;;
61407;SDS011;47274;43.054;25.146;2023-09-07T10:05:32;12.23;;;5.35;;
61407;SDS011;47274;43.054;25.146;2023-09-07T10:08:16;9.32;;;5.03;;
61407;SDS011;47274;43.054;25.146;2023-09-07T10:10:46;10.45;;;5.65;;
61407;SDS011;47274;43.054;25.146;2023-09-07T10:13:16;13.25;;;5.25;;
61407;SDS011;47274;43.054;25.146;2023-09-07T10:16:03;9.40;;;4.88;;
61407;SDS011;47274;43.054;25.146;2023-09-07T10:18:33;12.35;;;5.50;;
61407;SDS011;47274;43.054;25.146;2023-09-07T10:21:01;9.88;;;5.00;;
61407;SDS011;47274;43.054;25.146;2023-09-07T10:23:35;9.75;;;5.03;;
61407;SDS011;47274;43.054;25.146;2023-09-07T10:26:05;10.60;;;4.95;;
61407;SDS011;47274;43.054;25.146;2023-09-07T10:28:35;9.88;;;4.80;;
61407;SDS011;47274;43.054;25.146;2023-09-07T10:31:05;7.90;;;4.90;;
61407;SDS011;47274;43.054;25.146;2023-09-07T10:33:35;13.73;;;5.55;;
61407;SDS011;47274;43.054;25.146;2023-09-07T10:36:02;11.35;;;5.22;;
61407;SDS011;47274;43.054;25.146;2023-09-07T10:38:30;10.18;;;5.18;;
61407;SDS011;47274;43.054;25.146;2023-09-07T10:40:58;9.20;;;5.30;;
61407;SDS011;47274;43.054;25.146;2023-09-07T10:43:25;11.65;;;5.45;;
61407;SDS011;47274;43.054;25.146;2023-09-07T10:45:55;9.40;;;5.30;;
61407;SDS011;47274;43.054;25.146;2023-09-07T10:48:22;9.15;;;4.95;;
61407;SDS011;47274;43.054;25.146;2023-09-07T10:50:50;10.75;;;5.05;;
61407;SDS011;47274;43.054;25.146;2023-09-07T10:53:27;9.25;;;4.78;;
61407;SDS011;47274;43.054;25.146;2023-09-07T10:55:54;10.45;;;5.50;;
61407;SDS011;47274;43.054;25.146;2023-09-07T10:58:35;11.32;;;5.40;;
61407;SDS011;47274;43.054;25.146;2023-09-07T11:01:07;13.10;;;4.97;;
61407;SDS011;47274;43.054;25.146;2023-09-07T11:03:34;9.55;;;4.93;;
61407;SDS011;47274;43.054;25.146;2023-09-07T11:06:03;12.05;;;5.05;;
61407;SDS011;47274;43.054;25.146;2023-09-07T11:08:34;8.32;;;4.72;;
61407;SDS011;47274;43.054;25.146;2023-09-07T11:11:00;9.93;;;4.97;;
61407;SDS011;47274;43.054;25.146;2023-09-07T11:13:28;7.90;;;4.70;;
61407;SDS011;47274;43.054;25.146;2023-09-07T11:15:54;9.23;;;4.70;;
61407;SDS011;47274;43.054;25.146;2023-09-07T11:18:21;9.50;;;4.35;;
61407;SDS011;47274;43.054;25.146;2023-09-07T11:20:51;10.93;;;5.00;;
61407;SDS011;47274;43.054;25.146;2023-09-07T11:23:18;7.25;;;4.20;;
61407;SDS011;47274;43.054;25.146;2023-09-07T11:25:45;8.73;;;4.68;;
61407;SDS011;47274;43.054;25.146;2023-09-07T11:28:12;14.15;;;5.22;;
61407;SDS011;47274;43.054;25.146;2023-09-07T11:30:50;9.55;;;5.10;;
61407;SDS011;47274;43.054;25.146;2023-09-07T11:33:17;10.80;;;5.10;;
61407;SDS011;47274;43.054;25.146;2023-09-07T11:35:43;11.90;;;5.30;;
61407;SDS011;47274;43.054;25.146;2023-09-07T11:38:12;9.05;;;5.35;;
61407;SDS011;47274;43.054;25.146;2023-09-07T11:40:38;9.98;;;4.90;;
61407;SDS011;47274;43.054;25.146;2023-09-07T11:43:08;9.27;;;4.88;;
61407;SDS011;47274;43.054;25.146;2023-09-07T11:45:34;10.93;;;4.75;;
61407;SDS011;47274;43.054;25.146;2023-09-07T11:48:00;8.95;;;5.28;;
61407;SDS011;47274;43.054;25.146;2023-09-07T11:50:26;9.38;;;4.95;;
61407;SDS011;47274;43.054;25.146;2023-09-07T11:52:55;8.77;;;4.80;;
61407;SDS011;47274;43.054;25.146;2023-09-07T11:55:21;9.00;;;4.93;;
61407;SDS011;47274;43.054;25.146;2023-09-07T11:57:47;10.30;;;5.03;;
61407;SDS011;47274;43.054;25.146;2023-09-07T12:00:13;12.80;;;5.10;;
61407;SDS011;47274;43.054;25.146;2023-09-07T12:02:40;10.50;;;5.13;;
61407;SDS011;47274;43.054;25.146;2023-09-07T12:05:07;12.32;;;5.57;;
61407;SDS011;47274;43.054;25.146;2023-09-07T12:07:39;11.93;;;5.65;;
61407;SDS011;47274;43.054;25.146;2023-09-07T12:10:06;11.40;;;5.13;;
61407;SDS011;47274;43.054;25.146;2023-09-07T12:12:39;8.50;;;5.00;;
61407;SDS011;47274;43.054;25.146;2023-09-07T12:15:05;8.23;;;4.90;;
61407;SDS011;47274;43.054;25.146;2023-09-07T12:17:32;8.32;;;4.82;;
61407;SDS011;47274;43.054;25.146;2023-09-07T12:19:58;11.90;;;5.57;;
61407;SDS011;47274;43.054;25.146;2023-09-07T12:22:26;10.32;;;5.00;;
61407;SDS011;47274;43.054;25.146;2023-09-07T12:24:52;7.90;;;4.85;;
61407;SDS011;47274;43.054;25.146;2023-09-07T12:27:18;11.20;;;5.00;;
61407;SDS011;47274;43.054;25.146;2023-09-07T12:29:44;8.52;;;4.85;;
61407;SDS011;47274;43.054;25.146;2023-09-07T12:32:10;9.07;;;4.50;;
61407;SDS011;47274;43.054;25.146;2023-09-07T12:34:36;11.23;;;5.07;;
61407;SDS011;47274;43.054;25.146;2023-09-07T12:37:04;11.23;;;4.57;;
61407;SDS011;47274;43.054;25.146;2023-09-07T12:39:30;9.65;;;4.97;;
61407;SDS011;47274;43.054;25.146;2023-09-07T12:41:57;12.45;;;5.47;;
61407;SDS011;47274;43.054;25.146;2023-09-07T12:44:23;7.55;;;4.40;;
61407;SDS011;47274;43.054;25.146;2023-09-07T12:46:48;8.35;;;4.28;;
61407;SDS011;47274;43.054;25.146;2023-09-07T12:49:17;9.40;;;4.70;;
61407;SDS011;47274;43.054;25.146;2023-09-07T12:51:45;7.65;;;4.25;;
61407;SDS011;47274;43.054;25.146;2023-09-07T12:54:11;10.38;;;5.05;;
61407;SDS011;47274;43.054;25.146;2023-09-07T12:56:37;6.25;;;4.50;;
61407;SDS011;47274;43.054;25.146;2023-09-07T12:59:03;8.23;;;4.80;;
61407;SDS011;47274;43.054;25.146;2023-09-07T13:01:29;9.38;;;4.38;;
61407;SDS011;47274;43.054;25.146;2023-09-07T13:03:56;8.50;;;4.30;;
61407;SDS011;47274;43.054;25.146;2023-09-07T13:06:22;11.70;;;5.30;;
61407;SDS011;47274;43.054;25.146;2023-09-07T13:08:48;9.52;;;4.65;;
61407;SDS011;47274;43.054;25.146;2023-09-07T13:11:14;11.98;;;5.38;;
61407;SDS011;47274;43.054;25.146;2023-09-07T13:13:40;9.23;;;4.90;;
61407;SDS011;47274;43.054;25.146;2023-09-07T13:16:06;9.70;;;4.68;;
61407;SDS011;47274;43.054;25.146;2023-09-07T13:18:35;10.95;;;4.68;;
61407;SDS011;47274;43.054;25.146;2023-09-07T13:21:07;7.65;;;4.57;;
61407;SDS011;47274;43.054;25.146;2023-09-07T13:23:33;10.20;;;5.45;;
61407;SDS011;47274;43.054;25.146;2023-09-07T13:26:14;10.25;;;4.70;;
61407;SDS011;47274;43.054;25.146;2023-09-07T13:28:40;11.55;;;4.88;;
61407;SDS011;47274;43.054;25.146;2023-09-07T13:31:06;8.60;;;4.70;;
61407;SDS011;47274;43.054;25.146;2023-09-07T13:33:32;8.27;;;4.43;;
61407;SDS011;47274;43.054;25.146;2023-09-07T13:35:58;7.90;;;4.45;;
61407;SDS011;47274;43.054;25.146;2023-09-07T13:38:23;8.15;;;4.50;;
61407;SDS011;47274;43.054;25.146;2023-09-07T13:40:49;8.60;;;4.30;;
61407;SDS011;47274;43.054;25.146;2023-09-07T13:43:15;7.40;;;4.20;;
61407;SDS011;47274;43.054;25.146;2023-09-07T13:45:41;8.73;;;3.97;;
61407;SDS011;47274;43.054;25.146;2023-09-07T13:48:09;6.78;;;4.50;;
61407;SDS011;47274;43.054;25.146;2023-09-07T13:50:35;8.25;;;4.72;;
61407;SDS011;47274;43.054;25.146;2023-09-07T13:53:01;8.25;;;4.40;;
61407;SDS011;47274;43.054;25.146;2023-09-07T13:55:26;7.63;;;4.45;;
61407;SDS011;47274;43.054;25.146;2023-09-07T13:57:52;9.10;;;4.40;;
61407;SDS011;47274;43.054;25.146;2023-09-07T14:00:21;7.93;;;4.20;;
61407;SDS011;47274;43.054;25.146;2023-09-07T14:02:47;8.18;;;4.30;;
61407;SDS011;47274;43.054;25.146;2023-09-07T14:05:13;9.27;;;4.57;;
61407;SDS011;47274;43.054;25.146;2023-09-07T14:07:38;7.10;;;4.40;;
61407;SDS011;47274;43.054;25.146;2023-09-07T14:10:04;7.82;;;4.40;;
61407;SDS011;47274;43.054;25.146;2023-09-07T14:12:30;7.35;;;4.18;;
61407;SDS011;47274;43.054;25.146;2023-09-07T14:14:56;10.80;;;5.45;;
61407;SDS011;47274;43.054;25.146;2023-09-07T14:17:22;9.82;;;4.72;;
61407;SDS011;47274;43.054;25.146;2023-09-07T14:19:48;9.90;;;4.55;;
61407;SDS011;47274;43.054;25.146;2023-09-07T14:22:14;10.30;;;4.53;;
61407;SDS011;47274;43.054;25.146;2023-09-07T14:24:40;6.53;;;4.20;;
61407;SDS011;47274;43.054;25.146;2023-09-07T14:27:06;8.13;;;4.53;;
61407;SDS011;47274;43.054;25.146;2023-09-07T14:29:31;7.85;;;4.40;;
61407;SDS011;47274;43.054;25.146;2023-09-07T14:31:57;9.15;;;4.10;;
61407;SDS011;47274;43.054;25.146;2023-09-07T14:34:23;9.93;;;5.03;;
61407;SDS011;47274;43.054;25.146;2023-09-07T14:36:49;12.27;;;5.20;;
61407;SDS011;47274;43.054;25.146;2023-09-07T14:39:15;9.32;;;4.70;;
61407;SDS011;47274;43.054;25.146;2023-09-07T14:41:44;8.38;;;4.30;;